sensor_id;sensor_type;location;lat;lon;timestamp;P1;durP1;ratioP1;P2;durP2;ratioP2
78873;SDS011;68250;43.514;1.494;2023-05-10T00:01:55;13.90;;;2.35;;
78873;SDS011;68250;43.514;1.494;2023-05-10T00:04:20;10.23;;;2.00;;
78873;SDS011;68250;43.514;1.494;2023-05-10T00:06:46;14.45;;;2.70;;
78873;SDS011;68250;43.514;1.494;2023-05-10T00:09:12;16.00;;;2.53;;
78873;SDS011;68250;43.514;1.494;2023-05-10T00:11:37;15.02;;;2.28;;
78873;SDS011;68250;43.514;1.494;2023-05-10T00:14:03;16.00;;;2.55;;
78873;SDS011;68250;43.514;1.494;2023-05-10T00:16:28;15.97;;;2.50;;
78873;SDS011;68250;43.514;1.494;2023-05-10T00:18:54;14.13;;;2.50;;
78873;SDS011;68250;43.514;1.494;2023-05-10T00:21:20;13.63;;;2.57;;
78873;SDS011;68250;43.514;1.494;2023-05-10T00:23:45;10.57;;;2.17;;
78873;SDS011;68250;43.514;1.494;2023-05-10T00:26:11;16.38;;;2.50;;
78873;SDS011;68250;43.514;1.494;2023-05-10T00:28:36;14.93;;;2.53;;
78873;SDS011;68250;43.514;1.494;2023-05-10T00:31:02;17.93;;;2.80;;
78873;SDS011;68250;43.514;1.494;2023-05-10T00:33:28;20.00;;;2.50;;
78873;SDS011;68250;43.514;1.494;2023-05-10T00:35:53;19.43;;;2.77;;
78873;SDS011;68250;43.514;1.494;2023-05-10T00:38:19;21.13;;;2.80;;
78873;SDS011;68250;43.514;1.494;2023-05-10T00:40:44;16.20;;;2.55;;
78873;SDS011;68250;43.514;1.494;2023-05-10T00:43:10;15.80;;;2.40;;
78873;SDS011;68250;43.514;1.494;2023-05-10T00:45:35;20.77;;;3.17;;
78873;SDS011;68250;43.514;1.494;2023-05-10T00:48:02;18.73;;;2.45;;
78873;SDS011;68250;43.514;1.494;2023-05-10T00:50:28;19.65;;;2.70;;
78873;SDS011;68250;43.514;1.494;2023-05-10T00:52:55;17.02;;;2.75;;
78873;SDS011;68250;43.514;1.494;2023-05-10T00:55:22;18.05;;;3.13;;
78873;SDS011;68250;43.514;1.494;2023-05-10T00:57:48;21.73;;;3.10;;
78873;SDS011;68250;43.514;1.494;2023-05-10T01:00:13;19.25;;;3.10;;
78873;SDS011;68250;43.514;1.494;2023-05-10T01:02:43;19.63;;;2.70;;
78873;SDS011;68250;43.514;1.494;2023-05-10T01:05:12;17.77;;;2.58;;
78873;SDS011;68250;43.514;1.494;2023-05-10T01:07:38;12.40;;;2.28;;
78873;SDS011;68250;43.514;1.494;2023-05-10T01:10:07;15.82;;;2.53;;
78873;SDS011;68250;43.514;1.494;2023-05-10T01:12:35;15.45;;;2.20;;
78873;SDS011;68250;43.514;1.494;2023-05-10T01:15:03;20.03;;;2.83;;
78873;SDS011;68250;43.514;1.494;2023-05-10T01:17:30;19.25;;;2.72;;
78873;SDS011;68250;43.514;1.494;2023-05-10T01:19:56;16.00;;;2.30;;
78873;SDS011;68250;43.514;1.494;2023-05-10T01:36:23;15.13;;;2.30;;
78873;SDS011;68250;43.514;1.494;2023-05-10T01:38:57;15.77;;;2.30;;
78873;SDS011;68250;43.514;1.494;2023-05-10T01:41:55;14.65;;;1.90;;
78873;SDS011;68250;43.514;1.494;2023-05-10T01:44:34;13.50;;;1.92;;
78873;SDS011;68250;43.514;1.494;2023-05-10T01:47:07;11.20;;;2.10;;
78873;SDS011;68250;43.514;1.494;2023-05-10T01:52:33;15.23;;;2.40;;
78873;SDS011;68250;43.514;1.494;2023-05-10T01:55:06;11.10;;;1.70;;
78873;SDS011;68250;43.514;1.494;2023-05-10T01:57:37;10.95;;;1.73;;
78873;SDS011;68250;43.514;1.494;2023-05-10T02:00:04;12.48;;;1.80;;
78873;SDS011;68250;43.514;1.494;2023-05-10T02:02:39;10.25;;;1.73;;
78873;SDS011;68250;43.514;1.494;2023-05-10T02:05:07;12.85;;;2.10;;
78873;SDS011;68250;43.514;1.494;2023-05-10T02:07:36;11.13;;;1.90;;
78873;SDS011;68250;43.514;1.494;2023-05-10T02:10:02;15.88;;;2.60;;
78873;SDS011;68250;43.514;1.494;2023-05-10T02:12:30;10.63;;;1.70;;
78873;SDS011;68250;43.514;1.494;2023-05-10T02:14:57;11.25;;;1.80;;
78873;SDS011;68250;43.514;1.494;2023-05-10T02:17:25;11.18;;;1.98;;
78873;SDS011;68250;43.514;1.494;2023-05-10T02:19:51;15.05;;;1.90;;
78873;SDS011;68250;43.514;1.494;2023-05-10T02:22:16;14.15;;;1.98;;
78873;SDS011;68250;43.514;1.494;2023-05-10T02:24:43;10.55;;;1.85;;
78873;SDS011;68250;43.514;1.494;2023-05-10T02:27:09;13.32;;;2.00;;
78873;SDS011;68250;43.514;1.494;2023-05-10T02:29:35;14.98;;;2.00;;
78873;SDS011;68250;43.514;1.494;2023-05-10T02:32:01;12.27;;;1.70;;
78873;SDS011;68250;43.514;1.494;2023-05-10T02:34:27;11.15;;;2.05;;
78873;SDS011;68250;43.514;1.494;2023-05-10T02:36:53;15.65;;;1.90;;
78873;SDS011;68250;43.514;1.494;2023-05-10T02:39:20;14.45;;;2.38;;
78873;SDS011;68250;43.514;1.494;2023-05-10T02:41:46;18.15;;;2.53;;
78873;SDS011;68250;43.514;1.494;2023-05-10T02:44:14;14.68;;;2.20;;
78873;SDS011;68250;43.514;1.494;2023-05-10T02:46:40;17.63;;;2.13;;
78873;SDS011;68250;43.514;1.494;2023-05-10T02:49:06;15.38;;;1.95;;
78873;SDS011;68250;43.514;1.494;2023-05-10T02:51:32;16.48;;;2.55;;
78873;SDS011;68250;43.514;1.494;2023-05-10T02:54:02;13.73;;;1.90;;
78873;SDS011;68250;43.514;1.494;2023-05-10T02:56:33;15.82;;;2.22;;
78873;SDS011;68250;43.514;1.494;2023-05-10T02:59:00;17.37;;;2.37;;
78873;SDS011;68250;43.514;1.494;2023-05-10T03:01:25;13.77;;;2.10;;
78873;SDS011;68250;43.514;1.494;2023-05-10T03:03:51;14.80;;;2.60;;
78873;SDS011;68250;43.514;1.494;2023-05-10T03:06:16;13.37;;;2.07;;
78873;SDS011;68250;43.514;1.494;2023-05-10T03:08:42;10.75;;;2.05;;
78873;SDS011;68250;43.514;1.494;2023-05-10T03:11:14;10.68;;;1.85;;
78873;SDS011;68250;43.514;1.494;2023-05-10T03:16:29;13.98;;;1.95;;
78873;SDS011;68250;43.514;1.494;2023-05-10T03:19:05;13.13;;;2.53;;
78873;SDS011;68250;43.514;1.494;2023-05-10T03:21:33;14.05;;;2.40;;
78873;SDS011;68250;43.514;1.494;2023-05-10T03:24:07;14.80;;;2.85;;
78873;SDS011;68250;43.514;1.494;2023-05-10T03:26:36;17.23;;;2.93;;
78873;SDS011;68250;43.514;1.494;2023-05-10T03:29:03;22.60;;;2.83;;
78873;SDS011;68250;43.514;1.494;2023-05-10T03:31:30;13.68;;;2.17;;
78873;SDS011;68250;43.514;1.494;2023-05-10T03:33:55;13.73;;;2.10;;
78873;SDS011;68250;43.514;1.494;2023-05-10T03:36:21;13.45;;;2.40;;
78873;SDS011;68250;43.514;1.494;2023-05-10T03:38:47;11.73;;;1.53;;
78873;SDS011;68250;43.514;1.494;2023-05-10T03:41:12;17.17;;;2.00;;
78873;SDS011;68250;43.514;1.494;2023-05-10T03:43:38;15.73;;;2.30;;
78873;SDS011;68250;43.514;1.494;2023-05-10T03:46:03;11.63;;;1.70;;
78873;SDS011;68250;43.514;1.494;2023-05-10T03:48:30;13.68;;;2.03;;
78873;SDS011;68250;43.514;1.494;2023-05-10T03:50:56;14.65;;;1.90;;
78873;SDS011;68250;43.514;1.494;2023-05-10T03:53:21;12.67;;;2.00;;
78873;SDS011;68250;43.514;1.494;2023-05-10T03:55:48;15.68;;;1.77;;
78873;SDS011;68250;43.514;1.494;2023-05-10T03:58:14;15.20;;;2.20;;
78873;SDS011;68250;43.514;1.494;2023-05-10T04:00:40;15.80;;;2.03;;
78873;SDS011;68250;43.514;1.494;2023-05-10T04:03:09;14.65;;;2.00;;
78873;SDS011;68250;43.514;1.494;2023-05-10T04:05:35;18.27;;;2.00;;
78873;SDS011;68250;43.514;1.494;2023-05-10T04:08:01;13.20;;;2.00;;
78873;SDS011;68250;43.514;1.494;2023-05-10T04:10:27;17.03;;;2.33;;
78873;SDS011;68250;43.514;1.494;2023-05-10T04:12:52;17.58;;;1.98;;
78873;SDS011;68250;43.514;1.494;2023-05-10T04:15:18;16.00;;;2.40;;
78873;SDS011;68250;43.514;1.494;2023-05-10T04:17:43;14.07;;;1.65;;
78873;SDS011;68250;43.514;1.494;2023-05-10T04:20:09;17.48;;;2.00;;
78873;SDS011;68250;43.514;1.494;2023-05-10T04:22:35;16.33;;;2.00;;
78873;SDS011;68250;43.514;1.494;2023-05-10T04:25:01;13.90;;;2.07;;
78873;SDS011;68250;43.514;1.494;2023-05-10T04:27:26;15.63;;;1.97;;
78873;SDS011;68250;43.514;1.494;2023-05-10T04:29:52;17.42;;;2.05;;
78873;SDS011;68250;43.514;1.494;2023-05-10T04:32:17;10.55;;;1.40;;
78873;SDS011;68250;43.514;1.494;2023-05-10T04:34:44;16.63;;;1.77;;
78873;SDS011;68250;43.514;1.494;2023-05-10T04:37:09;14.53;;;1.93;;
78873;SDS011;68250;43.514;1.494;2023-05-10T04:39:35;15.63;;;2.13;;
78873;SDS011;68250;43.514;1.494;2023-05-10T04:42:01;11.60;;;1.60;;
78873;SDS011;68250;43.514;1.494;2023-05-10T04:44:28;11.93;;;1.73;;
78873;SDS011;68250;43.514;1.494;2023-05-10T04:46:54;12.77;;;1.75;;
78873;SDS011;68250;43.514;1.494;2023-05-10T04:49:20;17.67;;;1.70;;
78873;SDS011;68250;43.514;1.494;2023-05-10T04:51:46;14.98;;;1.75;;
78873;SDS011;68250;43.514;1.494;2023-05-10T04:54:12;17.03;;;1.87;;
78873;SDS011;68250;43.514;1.494;2023-05-10T04:56:37;11.67;;;1.43;;
78873;SDS011;68250;43.514;1.494;2023-05-10T04:59:03;13.90;;;2.10;;
78873;SDS011;68250;43.514;1.494;2023-05-10T05:01:28;11.98;;;2.15;;
78873;SDS011;68250;43.514;1.494;2023-05-10T05:03:54;15.73;;;1.83;;
78873;SDS011;68250;43.514;1.494;2023-05-10T05:06:20;16.92;;;2.00;;
78873;SDS011;68250;43.514;1.494;2023-05-10T05:08:49;14.00;;;1.70;;
78873;SDS011;68250;43.514;1.494;2023-05-10T05:11:15;21.02;;;2.10;;
78873;SDS011;68250;43.514;1.494;2023-05-10T05:13:41;12.23;;;2.07;;
78873;SDS011;68250;43.514;1.494;2023-05-10T05:16:06;22.98;;;2.28;;
78873;SDS011;68250;43.514;1.494;2023-05-10T05:18:32;16.03;;;2.10;;
78873;SDS011;68250;43.514;1.494;2023-05-10T05:20:57;17.57;;;2.40;;
78873;SDS011;68250;43.514;1.494;2023-05-10T05:23:23;17.67;;;2.22;;
78873;SDS011;68250;43.514;1.494;2023-05-10T05:25:51;15.43;;;2.55;;
78873;SDS011;68250;43.514;1.494;2023-05-10T05:28:17;16.03;;;2.03;;
78873;SDS011;68250;43.514;1.494;2023-05-10T05:30:43;18.75;;;2.40;;
78873;SDS011;68250;43.514;1.494;2023-05-10T05:33:09;16.08;;;2.42;;
78873;SDS011;68250;43.514;1.494;2023-05-10T05:35:35;14.48;;;2.58;;
78873;SDS011;68250;43.514;1.494;2023-05-10T05:38:00;21.50;;;2.50;;
78873;SDS011;68250;43.514;1.494;2023-05-10T05:40:26;16.33;;;2.13;;
78873;SDS011;68250;43.514;1.494;2023-05-10T05:42:51;15.07;;;2.22;;
78873;SDS011;68250;43.514;1.494;2023-05-10T05:45:17;13.15;;;2.47;;
78873;SDS011;68250;43.514;1.494;2023-05-10T05:47:43;19.10;;;2.23;;
78873;SDS011;68250;43.514;1.494;2023-05-10T05:50:08;16.88;;;1.83;;
78873;SDS011;68250;43.514;1.494;2023-05-10T05:52:34;15.02;;;1.83;;
78873;SDS011;68250;43.514;1.494;2023-05-10T05:55:01;16.00;;;2.25;;
78873;SDS011;68250;43.514;1.494;2023-05-10T05:57:26;16.23;;;2.67;;
78873;SDS011;68250;43.514;1.494;2023-05-10T05:59:52;14.07;;;2.37;;
78873;SDS011;68250;43.514;1.494;2023-05-10T06:02:18;15.48;;;2.35;;
78873;SDS011;68250;43.514;1.494;2023-05-10T06:04:43;12.87;;;1.60;;
78873;SDS011;68250;43.514;1.494;2023-05-10T06:07:09;11.37;;;2.03;;
78873;SDS011;68250;43.514;1.494;2023-05-10T06:09:34;13.23;;;1.77;;
78873;SDS011;68250;43.514;1.494;2023-05-10T06:12:00;15.50;;;2.00;;
78873;SDS011;68250;43.514;1.494;2023-05-10T06:14:26;14.75;;;1.95;;
78873;SDS011;68250;43.514;1.494;2023-05-10T06:16:52;13.70;;;1.80;;
78873;SDS011;68250;43.514;1.494;2023-05-10T06:19:18;11.05;;;1.88;;
78873;SDS011;68250;43.514;1.494;2023-05-10T06:21:43;14.15;;;2.25;;
78873;SDS011;68250;43.514;1.494;2023-05-10T06:24:09;12.82;;;2.42;;
78873;SDS011;68250;43.514;1.494;2023-05-10T06:26:35;12.40;;;1.97;;
78873;SDS011;68250;43.514;1.494;2023-05-10T06:29:00;13.27;;;1.70;;
78873;SDS011;68250;43.514;1.494;2023-05-10T06:31:26;12.00;;;1.97;;
78873;SDS011;68250;43.514;1.494;2023-05-10T06:33:51;15.77;;;1.97;;
78873;SDS011;68250;43.514;1.494;2023-05-10T06:36:18;15.45;;;1.58;;
78873;SDS011;68250;43.514;1.494;2023-05-10T06:38:43;13.00;;;2.13;;
78873;SDS011;68250;43.514;1.494;2023-05-10T06:41:09;17.20;;;2.10;;
78873;SDS011;68250;43.514;1.494;2023-05-10T06:43:34;16.88;;;1.90;;
78873;SDS011;68250;43.514;1.494;2023-05-10T06:46:00;11.63;;;1.85;;
78873;SDS011;68250;43.514;1.494;2023-05-10T06:48:26;8.83;;;1.80;;
78873;SDS011;68250;43.514;1.494;2023-05-10T06:50:51;16.80;;;2.10;;
78873;SDS011;68250;43.514;1.494;2023-05-10T06:53:17;17.83;;;2.00;;
78873;SDS011;68250;43.514;1.494;2023-05-10T06:55:42;13.47;;;1.63;;
78873;SDS011;68250;43.514;1.494;2023-05-10T06:58:08;16.65;;;2.08;;
78873;SDS011;68250;43.514;1.494;2023-05-10T07:00:34;14.30;;;1.90;;
78873;SDS011;68250;43.514;1.494;2023-05-10T07:02:59;16.00;;;1.90;;
78873;SDS011;68250;43.514;1.494;2023-05-10T07:05:25;14.97;;;1.77;;
78873;SDS011;68250;43.514;1.494;2023-05-10T07:07:52;18.70;;;2.10;;
78873;SDS011;68250;43.514;1.494;2023-05-10T07:10:18;16.73;;;2.00;;
78873;SDS011;68250;43.514;1.494;2023-05-10T07:12:44;14.32;;;2.00;;
78873;SDS011;68250;43.514;1.494;2023-05-10T07:15:09;16.27;;;1.83;;
78873;SDS011;68250;43.514;1.494;2023-05-10T07:17:35;15.50;;;2.13;;
78873;SDS011;68250;43.514;1.494;2023-05-10T07:20:01;13.97;;;2.00;;
78873;SDS011;68250;43.514;1.494;2023-05-10T07:22:26;12.63;;;1.58;;
78873;SDS011;68250;43.514;1.494;2023-05-10T07:24:52;15.47;;;2.00;;
78873;SDS011;68250;43.514;1.494;2023-05-10T07:27:18;16.00;;;2.10;;
78873;SDS011;68250;43.514;1.494;2023-05-10T07:29:43;17.90;;;2.22;;
78873;SDS011;68250;43.514;1.494;2023-05-10T07:32:09;15.17;;;2.40;;
78873;SDS011;68250;43.514;1.494;2023-05-10T07:34:34;18.20;;;1.90;;
78873;SDS011;68250;43.514;1.494;2023-05-10T07:37:00;15.32;;;2.08;;
78873;SDS011;68250;43.514;1.494;2023-05-10T07:39:26;15.15;;;2.03;;
78873;SDS011;68250;43.514;1.494;2023-05-10T07:41:52;19.50;;;2.23;;
78873;SDS011;68250;43.514;1.494;2023-05-10T07:44:18;15.05;;;2.10;;
78873;SDS011;68250;43.514;1.494;2023-05-10T07:46:45;12.20;;;1.88;;
78873;SDS011;68250;43.514;1.494;2023-05-10T07:49:11;13.98;;;2.08;;
78873;SDS011;68250;43.514;1.494;2023-05-10T07:51:37;15.43;;;1.60;;
78873;SDS011;68250;43.514;1.494;2023-05-10T07:54:02;16.77;;;2.05;;
78873;SDS011;68250;43.514;1.494;2023-05-10T07:56:29;14.43;;;1.90;;
78873;SDS011;68250;43.514;1.494;2023-05-10T07:58:57;11.30;;;1.80;;
78873;SDS011;68250;43.514;1.494;2023-05-10T08:01:26;13.70;;;1.95;;
78873;SDS011;68250;43.514;1.494;2023-05-10T08:03:52;10.85;;;1.90;;
78873;SDS011;68250;43.514;1.494;2023-05-10T08:06:18;19.48;;;2.08;;
78873;SDS011;68250;43.514;1.494;2023-05-10T08:08:48;13.23;;;2.08;;
78873;SDS011;68250;43.514;1.494;2023-05-10T08:11:18;14.40;;;1.95;;
78873;SDS011;68250;43.514;1.494;2023-05-10T08:13:45;15.15;;;1.90;;
78873;SDS011;68250;43.514;1.494;2023-05-10T08:16:11;15.30;;;2.28;;
78873;SDS011;68250;43.514;1.494;2023-05-10T08:18:37;13.70;;;1.95;;
78873;SDS011;68250;43.514;1.494;2023-05-10T08:21:03;13.73;;;1.87;;
78873;SDS011;68250;43.514;1.494;2023-05-10T08:23:28;12.77;;;2.17;;
78873;SDS011;68250;43.514;1.494;2023-05-10T08:25:54;13.77;;;1.60;;
78873;SDS011;68250;43.514;1.494;2023-05-10T08:28:19;10.90;;;1.92;;
78873;SDS011;68250;43.514;1.494;2023-05-10T08:30:45;11.23;;;2.00;;
78873;SDS011;68250;43.514;1.494;2023-05-10T08:33:11;13.57;;;2.07;;
78873;SDS011;68250;43.514;1.494;2023-05-10T08:35:36;18.55;;;2.10;;
78873;SDS011;68250;43.514;1.494;2023-05-10T08:38:02;11.00;;;1.27;;
78873;SDS011;68250;43.514;1.494;2023-05-10T08:40:27;12.10;;;1.80;;
78873;SDS011;68250;43.514;1.494;2023-05-10T08:42:58;13.50;;;1.77;;
78873;SDS011;68250;43.514;1.494;2023-05-10T08:45:39;10.93;;;1.40;;
78873;SDS011;68250;43.514;1.494;2023-05-10T08:48:06;12.30;;;1.70;;
78873;SDS011;68250;43.514;1.494;2023-05-10T08:50:33;10.17;;;1.73;;
78873;SDS011;68250;43.514;1.494;2023-05-10T08:53:01;11.23;;;1.30;;
78873;SDS011;68250;43.514;1.494;2023-05-10T08:55:29;14.18;;;2.30;;
78873;SDS011;68250;43.514;1.494;2023-05-10T08:57:55;11.55;;;1.88;;
78873;SDS011;68250;43.514;1.494;2023-05-10T09:00:21;13.57;;;1.83;;
78873;SDS011;68250;43.514;1.494;2023-05-10T09:02:49;15.13;;;1.77;;
78873;SDS011;68250;43.514;1.494;2023-05-10T09:05:15;10.73;;;1.38;;
78873;SDS011;68250;43.514;1.494;2023-05-10T09:07:41;12.13;;;1.40;;
78873;SDS011;68250;43.514;1.494;2023-05-10T09:10:07;10.55;;;1.40;;
78873;SDS011;68250;43.514;1.494;2023-05-10T09:12:34;14.93;;;1.60;;
78873;SDS011;68250;43.514;1.494;2023-05-10T09:15:00;12.40;;;1.80;;
78873;SDS011;68250;43.514;1.494;2023-05-10T09:17:26;11.75;;;1.58;;
78873;SDS011;68250;43.514;1.494;2023-05-10T09:19:59;11.75;;;1.60;;
78873;SDS011;68250;43.514;1.494;2023-05-10T09:22:25;11.95;;;1.63;;
78873;SDS011;68250;43.514;1.494;2023-05-10T09:27:32;12.65;;;1.25;;
78873;SDS011;68250;43.514;1.494;2023-05-10T09:29:57;10.18;;;1.60;;
78873;SDS011;68250;43.514;1.494;2023-05-10T09:32:44;11.52;;;1.35;;
78873;SDS011;68250;43.514;1.494;2023-05-10T09:35:14;10.88;;;1.27;;
78873;SDS011;68250;43.514;1.494;2023-05-10T09:37:41;9.90;;;1.30;;
78873;SDS011;68250;43.514;1.494;2023-05-10T09:40:08;11.68;;;1.38;;
78873;SDS011;68250;43.514;1.494;2023-05-10T09:42:37;8.27;;;1.27;;
78873;SDS011;68250;43.514;1.494;2023-05-10T09:45:06;8.43;;;1.00;;
78873;SDS011;68250;43.514;1.494;2023-05-10T09:47:32;9.52;;;0.88;;
78873;SDS011;68250;43.514;1.494;2023-05-10T09:50:01;10.13;;;1.10;;
78873;SDS011;68250;43.514;1.494;2023-05-10T09:52:30;10.27;;;1.35;;
78873;SDS011;68250;43.514;1.494;2023-05-10T09:54:56;9.07;;;1.10;;
78873;SDS011;68250;43.514;1.494;2023-05-10T09:57:22;7.28;;;0.85;;
78873;SDS011;68250;43.514;1.494;2023-05-10T09:59:49;11.70;;;1.52;;
78873;SDS011;68250;43.514;1.494;2023-05-10T10:02:15;6.80;;;1.00;;
78873;SDS011;68250;43.514;1.494;2023-05-10T10:04:42;13.70;;;1.52;;
78873;SDS011;68250;43.514;1.494;2023-05-10T10:07:07;11.23;;;1.45;;
78873;SDS011;68250;43.514;1.494;2023-05-10T10:09:33;11.13;;;1.35;;
78873;SDS011;68250;43.514;1.494;2023-05-10T10:12:03;9.30;;;1.37;;
78873;SDS011;68250;43.514;1.494;2023-05-10T10:14:29;12.75;;;1.40;;
78873;SDS011;68250;43.514;1.494;2023-05-10T10:16:55;11.85;;;1.38;;
78873;SDS011;68250;43.514;1.494;2023-05-10T10:19:21;10.03;;;1.40;;
78873;SDS011;68250;43.514;1.494;2023-05-10T10:21:47;9.55;;;1.27;;
78873;SDS011;68250;43.514;1.494;2023-05-10T10:24:14;11.80;;;1.27;;
78873;SDS011;68250;43.514;1.494;2023-05-10T10:26:40;8.37;;;1.00;;
78873;SDS011;68250;43.514;1.494;2023-05-10T10:32:07;6.60;;;1.00;;
78873;SDS011;68250;43.514;1.494;2023-05-10T10:34:38;7.82;;;0.75;;
78873;SDS011;68250;43.514;1.494;2023-05-10T10:37:04;6.35;;;0.93;;
78873;SDS011;68250;43.514;1.494;2023-05-10T10:39:31;7.50;;;0.75;;
78873;SDS011;68250;43.514;1.494;2023-05-10T10:41:57;6.53;;;0.90;;
78873;SDS011;68250;43.514;1.494;2023-05-10T10:50:22;6.63;;;0.60;;
78873;SDS011;68250;43.514;1.494;2023-05-10T10:52:30;7.68;;;1.00;;
78873;SDS011;68250;43.514;1.494;2023-05-10T11:00:38;8.20;;;0.70;;
78873;SDS011;68250;43.514;1.494;2023-05-10T11:03:04;8.80;;;0.95;;
78873;SDS011;68250;43.514;1.494;2023-05-10T11:08:23;7.60;;;1.10;;
78873;SDS011;68250;43.514;1.494;2023-05-10T11:13:28;6.85;;;1.35;;
78873;SDS011;68250;43.514;1.494;2023-05-10T11:16:17;7.85;;;1.00;;
78873;SDS011;68250;43.514;1.494;2023-05-10T11:19:01;9.07;;;1.33;;
78873;SDS011;68250;43.514;1.494;2023-05-10T11:21:28;7.63;;;1.20;;
78873;SDS011;68250;43.514;1.494;2023-05-10T11:23:56;6.57;;;1.08;;
78873;SDS011;68250;43.514;1.494;2023-05-10T11:26:30;7.97;;;1.20;;
78873;SDS011;68250;43.514;1.494;2023-05-10T11:28:57;9.23;;;0.93;;
78873;SDS011;68250;43.514;1.494;2023-05-10T11:31:25;9.70;;;0.80;;
78873;SDS011;68250;43.514;1.494;2023-05-10T11:33:56;7.88;;;1.10;;
78873;SDS011;68250;43.514;1.494;2023-05-10T11:36:26;7.60;;;1.00;;
78873;SDS011;68250;43.514;1.494;2023-05-10T11:38:53;8.13;;;1.20;;
78873;SDS011;68250;43.514;1.494;2023-05-10T11:41:19;7.53;;;0.90;;
78873;SDS011;68250;43.514;1.494;2023-05-10T11:43:54;11.57;;;1.40;;
78873;SDS011;68250;43.514;1.494;2023-05-10T11:46:20;9.35;;;1.40;;
78873;SDS011;68250;43.514;1.494;2023-05-10T11:48:51;8.27;;;1.20;;
78873;SDS011;68250;43.514;1.494;2023-05-10T11:51:22;9.38;;;1.67;;
78873;SDS011;68250;43.514;1.494;2023-05-10T11:53:48;8.25;;;1.50;;
78873;SDS011;68250;43.514;1.494;2023-05-10T11:56:18;9.80;;;1.42;;
78873;SDS011;68250;43.514;1.494;2023-05-10T11:58:43;7.38;;;0.95;;
78873;SDS011;68250;43.514;1.494;2023-05-10T12:01:09;6.82;;;0.75;;
78873;SDS011;68250;43.514;1.494;2023-05-10T12:03:35;5.05;;;0.55;;
78873;SDS011;68250;43.514;1.494;2023-05-10T12:06:02;5.55;;;0.50;;
78873;SDS011;68250;43.514;1.494;2023-05-10T12:08:28;5.72;;;0.85;;
78873;SDS011;68250;43.514;1.494;2023-05-10T12:11:07;6.07;;;0.57;;
78873;SDS011;68250;43.514;1.494;2023-05-10T12:13:38;4.53;;;0.67;;
78873;SDS011;68250;43.514;1.494;2023-05-10T12:16:20;5.07;;;1.20;;
78873;SDS011;68250;43.514;1.494;2023-05-10T12:18:55;4.63;;;0.52;;
78873;SDS011;68250;43.514;1.494;2023-05-10T12:21:22;5.18;;;0.60;;
78873;SDS011;68250;43.514;1.494;2023-05-10T12:23:49;7.37;;;0.60;;
78873;SDS011;68250;43.514;1.494;2023-05-10T12:26:16;4.75;;;0.70;;
78873;SDS011;68250;43.514;1.494;2023-05-10T12:28:41;5.22;;;0.63;;
78873;SDS011;68250;43.514;1.494;2023-05-10T12:31:07;4.87;;;0.90;;
78873;SDS011;68250;43.514;1.494;2023-05-10T12:33:36;5.72;;;0.70;;
78873;SDS011;68250;43.514;1.494;2023-05-10T12:36:10;5.80;;;0.70;;
78873;SDS011;68250;43.514;1.494;2023-05-10T12:38:37;7.13;;;0.87;;
78873;SDS011;68250;43.514;1.494;2023-05-10T12:41:10;6.82;;;1.35;;
78873;SDS011;68250;43.514;1.494;2023-05-10T12:43:36;7.88;;;1.10;;
78873;SDS011;68250;43.514;1.494;2023-05-10T12:46:12;5.65;;;1.10;;
78873;SDS011;68250;43.514;1.494;2023-05-10T12:48:39;8.48;;;1.00;;
78873;SDS011;68250;43.514;1.494;2023-05-10T12:51:06;7.97;;;0.83;;
78873;SDS011;68250;43.514;1.494;2023-05-10T12:53:37;4.93;;;0.85;;
78873;SDS011;68250;43.514;1.494;2023-05-10T12:56:03;6.25;;;0.80;;
78873;SDS011;68250;43.514;1.494;2023-05-10T12:58:28;6.28;;;0.70;;
78873;SDS011;68250;43.514;1.494;2023-05-10T13:00:54;5.07;;;0.60;;
78873;SDS011;68250;43.514;1.494;2023-05-10T13:03:21;4.20;;;0.40;;
78873;SDS011;68250;43.514;1.494;2023-05-10T13:05:47;4.13;;;0.68;;
78873;SDS011;68250;43.514;1.494;2023-05-10T13:08:12;4.50;;;0.60;;
78873;SDS011;68250;43.514;1.494;2023-05-10T13:10:38;5.38;;;0.50;;
78873;SDS011;68250;43.514;1.494;2023-05-10T13:13:04;3.97;;;0.50;;
78873;SDS011;68250;43.514;1.494;2023-05-10T13:15:30;2.95;;;0.45;;
78873;SDS011;68250;43.514;1.494;2023-05-10T13:17:55;5.93;;;0.90;;
78873;SDS011;68250;43.514;1.494;2023-05-10T13:20:21;4.13;;;0.50;;
78873;SDS011;68250;43.514;1.494;2023-05-10T13:22:47;5.20;;;0.70;;
78873;SDS011;68250;43.514;1.494;2023-05-10T13:25:12;4.37;;;0.47;;
78873;SDS011;68250;43.514;1.494;2023-05-10T13:27:41;4.00;;;0.47;;
78873;SDS011;68250;43.514;1.494;2023-05-10T13:30:09;6.05;;;0.70;;
78873;SDS011;68250;43.514;1.494;2023-05-10T13:32:36;5.50;;;0.67;;
78873;SDS011;68250;43.514;1.494;2023-05-10T13:35:02;5.82;;;0.80;;
78873;SDS011;68250;43.514;1.494;2023-05-10T13:37:31;5.82;;;0.95;;
78873;SDS011;68250;43.514;1.494;2023-05-10T13:39:57;5.35;;;0.70;;
78873;SDS011;68250;43.514;1.494;2023-05-10T13:42:22;6.23;;;0.67;;
78873;SDS011;68250;43.514;1.494;2023-05-10T13:44:48;4.13;;;0.50;;
78873;SDS011;68250;43.514;1.494;2023-05-10T13:47:17;4.95;;;0.70;;
78873;SDS011;68250;43.514;1.494;2023-05-10T13:49:43;5.93;;;0.63;;
78873;SDS011;68250;43.514;1.494;2023-05-10T13:52:08;5.97;;;0.63;;
78873;SDS011;68250;43.514;1.494;2023-05-10T13:54:35;5.10;;;0.70;;
78873;SDS011;68250;43.514;1.494;2023-05-10T13:57:02;6.18;;;0.82;;
78873;SDS011;68250;43.514;1.494;2023-05-10T13:59:28;4.95;;;0.70;;
78873;SDS011;68250;43.514;1.494;2023-05-10T14:01:53;4.43;;;0.70;;
78873;SDS011;68250;43.514;1.494;2023-05-10T14:04:19;6.13;;;0.77;;
78873;SDS011;68250;43.514;1.494;2023-05-10T14:06:45;6.60;;;0.90;;
78873;SDS011;68250;43.514;1.494;2023-05-10T14:09:10;7.00;;;0.87;;
78873;SDS011;68250;43.514;1.494;2023-05-10T14:11:36;7.10;;;1.00;;
78873;SDS011;68250;43.514;1.494;2023-05-10T14:14:02;6.70;;;0.82;;
78873;SDS011;68250;43.514;1.494;2023-05-10T14:16:28;5.72;;;0.75;;
78873;SDS011;68250;43.514;1.494;2023-05-10T14:18:54;6.90;;;0.90;;
78873;SDS011;68250;43.514;1.494;2023-05-10T14:21:19;9.43;;;1.20;;
78873;SDS011;68250;43.514;1.494;2023-05-10T14:23:45;6.30;;;0.80;;
78873;SDS011;68250;43.514;1.494;2023-05-10T14:26:10;5.37;;;0.70;;
78873;SDS011;68250;43.514;1.494;2023-05-10T14:28:36;5.97;;;0.98;;
78873;SDS011;68250;43.514;1.494;2023-05-10T14:31:01;6.03;;;0.60;;
78873;SDS011;68250;43.514;1.494;2023-05-10T14:33:27;4.30;;;0.67;;
78873;SDS011;68250;43.514;1.494;2023-05-10T14:35:53;4.35;;;0.65;;
78873;SDS011;68250;43.514;1.494;2023-05-10T14:38:19;8.03;;;0.77;;
78873;SDS011;68250;43.514;1.494;2023-05-10T14:40:45;6.85;;;0.73;;
78873;SDS011;68250;43.514;1.494;2023-05-10T14:43:11;5.60;;;0.70;;
78873;SDS011;68250;43.514;1.494;2023-05-10T14:45:36;5.65;;;0.70;;
78873;SDS011;68250;43.514;1.494;2023-05-10T14:48:02;6.63;;;0.80;;
78873;SDS011;68250;43.514;1.494;2023-05-10T14:50:29;7.30;;;0.80;;
78873;SDS011;68250;43.514;1.494;2023-05-10T14:52:56;4.97;;;0.77;;
78873;SDS011;68250;43.514;1.494;2023-05-10T14:55:22;6.25;;;0.77;;
78873;SDS011;68250;43.514;1.494;2023-05-10T14:57:47;6.00;;;0.63;;
78873;SDS011;68250;43.514;1.494;2023-05-10T15:00:15;5.10;;;0.60;;
78873;SDS011;68250;43.514;1.494;2023-05-10T15:02:41;4.78;;;0.70;;
78873;SDS011;68250;43.514;1.494;2023-05-10T15:05:07;3.53;;;0.60;;
78873;SDS011;68250;43.514;1.494;2023-05-10T15:07:32;6.82;;;1.00;;
78873;SDS011;68250;43.514;1.494;2023-05-10T15:09:58;5.67;;;0.70;;
78873;SDS011;68250;43.514;1.494;2023-05-10T15:12:23;7.00;;;1.20;;
78873;SDS011;68250;43.514;1.494;2023-05-10T15:14:49;8.03;;;0.93;;
78873;SDS011;68250;43.514;1.494;2023-05-10T15:17:14;6.17;;;0.90;;
78873;SDS011;68250;43.514;1.494;2023-05-10T15:19:41;6.20;;;0.90;;